FDX13 KASE-KLAX
Flight info
| Callsign | FDX13 |
|---|---|
| Flight time | N/A |
| Altitude | 32000 |
| Route | GLENO V591 JNC V8 GFS V538 TNP |
| Aircraft | B737/M-VGDW/C |
Departure
| Time | 2026-05-08 09:18 |
|---|---|
| Airport | Aspen-Pitkin County Airport (Sardy Field) (KASE) |
Arrival
| Time | N/A |
|---|---|
| Airport | Los Angeles International Airport (KLAX) |
| Time | Latitude | Longitude | Altitude | Speed | Heading |
|---|---|---|---|---|---|
| 2026-05-08 08:56 | 39.21960 | -106.86596 | 7780 ft | 7 kts | 162° |
| 2026-05-08 08:57 | 39.21943 | -106.86589 | 7782 ft | 0 kts | 161° |
| 2026-05-08 08:57 | 39.21930 | -106.86583 | 7785 ft | 9 kts | 159° |
| 2026-05-08 08:57 | 39.21816 | -106.86526 | 7799 ft | 23 kts | 155° |
| 2026-05-08 08:58 | 39.21679 | -106.86460 | 7811 ft | 18 kts | 160° |
| 2026-05-08 08:58 | 39.21583 | -106.86407 | 7818 ft | 12 kts | 158° |
| 2026-05-08 08:58 | 39.21520 | -106.86391 | 7822 ft | 6 kts | 186° |
| 2026-05-08 08:58 | 39.21492 | -106.86411 | 7823 ft | 5 kts | 226° |
| 2026-05-08 08:59 | 39.21483 | -106.86440 | 7825 ft | 8 kts | 262° |
| 2026-05-08 08:59 | 39.21681 | -106.86577 | 7809 ft | 49 kts | 340° |
| 2026-05-08 08:59 | 39.22127 | -106.86754 | 7765 ft | 84 kts | 339° |
| 2026-05-08 08:59 | 39.22769 | -106.87099 | 7725 ft | 115 kts | 339° |
| 2026-05-08 09:00 | 39.23319 | -106.87325 | 7684 ft | 135 kts | 351° |
| 2026-05-08 09:00 | 39.22065 | -106.86762 | 7776 ft | 383 kts | 339° |
| 2026-05-08 09:00 | 39.21175 | -106.86338 | 7842 ft | 24 kts | 349° |
| 2026-05-08 09:00 | 39.21175 | -106.86346 | 7842 ft | 0 kts | 359° |
| 2026-05-08 09:01 | 39.21176 | -106.86347 | 7842 ft | 0 kts | 355° |
| 2026-05-08 09:06 | 39.21178 | -106.86347 | 7842 ft | 1 kts | 352° |
| 2026-05-08 09:06 | 39.21184 | -106.86348 | 7841 ft | 1 kts | 352° |
| 2026-05-08 09:07 | 39.21196 | -106.86351 | 7841 ft | 2 kts | 352° |
| 2026-05-08 09:07 | 39.21210 | -106.86353 | 7840 ft | 2 kts | 352° |
| 2026-05-08 09:07 | 39.21224 | -106.86355 | 7840 ft | 2 kts | 352° |
| 2026-05-08 09:07 | 39.21236 | -106.86357 | 7840 ft | 1 kts | 352° |
| 2026-05-08 09:08 | 39.21243 | -106.86359 | 7838 ft | 1 kts | 353° |
| 2026-05-08 09:08 | 39.21246 | -106.86359 | 7838 ft | 0 kts | 353° |
| 2026-05-08 09:08 | 39.21247 | -106.86359 | 7832 ft | 0 kts | 353° |
| 2026-05-08 09:17 | 39.21248 | -106.86360 | 7832 ft | 1 kts | 349° |
| 2026-05-08 09:17 | 39.21319 | -106.86402 | 7832 ft | 25 kts | 335° |
| 2026-05-08 09:17 | 39.21598 | -106.86548 | 7817 ft | 66 kts | 339° |
| 2026-05-08 09:17 | 39.22279 | -106.86873 | 7756 ft | 136 kts | 340° |
| 2026-05-08 09:18 | 39.23318 | -106.87358 | 7724 ft | 179 kts | 338° |
| 2026-05-08 09:18 | 39.24471 | -106.87912 | 8405 ft | 178 kts | 337° |
| 2026-05-08 09:18 | 39.25639 | -106.88583 | 9069 ft | 188 kts | 328° |
| 2026-05-08 09:18 | 39.26639 | -106.89703 | 9611 ft | 193 kts | 312° |
| 2026-05-08 09:19 | 39.27581 | -106.90938 | 10105 ft | 189 kts | 314° |
| 2026-05-08 09:19 | 39.28407 | -106.92082 | 11000 ft | 164 kts | 307° |
| 2026-05-08 09:19 | 39.29055 | -106.93347 | 11248 ft | 181 kts | 297° |
| 2026-05-08 09:19 | 39.29777 | -106.94790 | 11329 ft | 209 kts | 311° |
| 2026-05-08 09:20 | 39.30896 | -106.96232 | 11355 ft | 251 kts | 314° |
| 2026-05-08 09:20 | 39.32147 | -106.98041 | 11451 ft | 289 kts | 306° |
| 2026-05-08 09:20 | 39.33285 | -107.00358 | 11717 ft | 317 kts | 297° |
| 2026-05-08 09:20 | 39.34209 | -107.03001 | 12484 ft | 328 kts | 292° |
| 2026-05-08 09:21 | 39.35087 | -107.05753 | 13279 ft | 332 kts | 294° |
| 2026-05-08 09:21 | 39.36072 | -107.08465 | 14042 ft | 334 kts | 297° |
| 2026-05-08 09:22 | 39.38733 | -107.26016 | 18384 ft | 353 kts | 262° |
| 2026-05-08 09:23 | 39.38007 | -107.29082 | 18983 ft | 360 kts | 254° |
| 2026-05-08 09:23 | 39.36948 | -107.32054 | 19534 ft | 366 kts | 248° |
| 2026-05-08 09:23 | 39.35756 | -107.34976 | 20090 ft | 369 kts | 249° |
| 2026-05-08 09:23 | 39.34642 | -107.37961 | 20604 ft | 370 kts | 252° |
| 2026-05-08 09:24 | 39.33766 | -107.41050 | 21098 ft | 369 kts | 259° |
| 2026-05-08 09:24 | 39.33204 | -107.44075 | 21576 ft | 369 kts | 263° |
| 2026-05-08 09:24 | 39.32721 | -107.47347 | 22104 ft | 372 kts | 264° |
| 2026-05-08 09:24 | 39.32153 | -107.50628 | 22600 ft | 378 kts | 261° |
| 2026-05-08 09:25 | 39.31448 | -107.53910 | 23097 ft | 382 kts | 260° |
| 2026-05-08 09:25 | 39.30754 | -107.57193 | 23591 ft | 384 kts | 261° |
| 2026-05-08 09:25 | 39.30108 | -107.60558 | 24012 ft | 387 kts | 262° |
| 2026-05-08 09:25 | 39.29464 | -107.63949 | 24433 ft | 390 kts | 262° |
| 2026-05-08 09:26 | 39.28780 | -107.67370 | 24833 ft | 394 kts | 261° |
| 2026-05-08 09:26 | 39.28081 | -107.70809 | 25249 ft | 397 kts | 262° |
| 2026-05-08 09:26 | 39.27391 | -107.74270 | 25653 ft | 400 kts | 262° |
| 2026-05-08 09:26 | 39.26703 | -107.77763 | 26006 ft | 403 kts | 262° |
| 2026-05-08 09:27 | 39.26002 | -107.81281 | 26472 ft | 404 kts | 262° |
| 2026-05-08 09:27 | 39.25303 | -107.84749 | 27009 ft | 404 kts | 262° |
| 2026-05-08 09:27 | 39.24601 | -107.88246 | 27522 ft | 403 kts | 262° |
| 2026-05-08 09:27 | 39.23899 | -107.91754 | 28026 ft | 402 kts | 263° |
| 2026-05-08 09:28 | 39.23199 | -107.95247 | 28519 ft | 402 kts | 263° |
| 2026-05-08 09:28 | 39.22494 | -107.98742 | 29006 ft | 401 kts | 263° |
| 2026-05-08 09:28 | 39.21791 | -108.02229 | 29483 ft | 401 kts | 263° |
| 2026-05-08 09:28 | 39.21089 | -108.05703 | 29927 ft | 401 kts | 263° |
| 2026-05-08 09:29 | 39.20394 | -108.09143 | 30338 ft | 400 kts | 263° |
| 2026-05-08 09:29 | 39.19690 | -108.12617 | 30705 ft | 400 kts | 263° |
| 2026-05-08 09:29 | 39.18987 | -108.16081 | 31072 ft | 400 kts | 264° |
| 2026-05-08 09:29 | 39.18281 | -108.19549 | 31462 ft | 399 kts | 264° |
| 2026-05-08 09:30 | 39.17576 | -108.23013 | 31842 ft | 399 kts | 264° |
| 2026-05-08 09:30 | 39.16869 | -108.26478 | 32010 ft | 400 kts | 264° |
| 2026-05-08 09:30 | 39.16161 | -108.29941 | 31998 ft | 399 kts | 264° |
| 2026-05-08 09:31 | 39.14749 | -108.36837 | 32032 ft | 398 kts | 264° |
| 2026-05-08 09:31 | 39.13344 | -108.43673 | 32034 ft | 397 kts | 263° |
| 2026-05-08 09:32 | 39.11924 | -108.50563 | 32048 ft | 398 kts | 263° |
| 2026-05-08 09:32 | 39.10494 | -108.57467 | 32047 ft | 398 kts | 263° |
| 2026-05-08 09:33 | 39.09074 | -108.64315 | 32049 ft | 398 kts | 263° |
| 2026-05-08 09:33 | 39.07638 | -108.71208 | 32021 ft | 398 kts | 263° |
| 2026-05-08 09:34 | 39.06202 | -108.78086 | 31899 ft | 398 kts | 263° |
| 2026-05-08 09:34 | 39.04208 | -108.84817 | 31938 ft | 406 kts | 253° |
| 2026-05-08 09:35 | 39.01953 | -108.91387 | 31934 ft | 402 kts | 256° |
| 2026-05-08 09:35 | 38.99834 | -108.98056 | 31934 ft | 403 kts | 255° |
| 2026-05-08 09:36 | 38.97621 | -109.04683 | 31942 ft | 403 kts | 255° |
| 2026-05-08 09:36 | 38.95452 | -109.11328 | 31942 ft | 403 kts | 255° |
| 2026-05-08 09:37 | 38.93267 | -109.17923 | 31946 ft | 404 kts | 255° |
| 2026-05-08 09:37 | 38.91073 | -109.24568 | 31944 ft | 404 kts | 255° |
| 2026-05-08 09:38 | 38.88868 | -109.31213 | 31946 ft | 404 kts | 255° |
| 2026-05-08 09:38 | 38.86661 | -109.37857 | 31947 ft | 404 kts | 255° |
| 2026-05-08 09:39 | 38.84452 | -109.44488 | 31949 ft | 404 kts | 255° |
| 2026-05-08 09:39 | 38.82253 | -109.51077 | 31951 ft | 404 kts | 255° |
| 2026-05-08 09:40 | 38.80036 | -109.57700 | 31954 ft | 404 kts | 255° |
| 2026-05-08 09:40 | 38.77813 | -109.64329 | 31955 ft | 404 kts | 254° |
| 2026-05-08 09:41 | 38.75585 | -109.70955 | 32023 ft | 404 kts | 254° |
| 2026-05-08 09:41 | 38.73366 | -109.77540 | 32024 ft | 404 kts | 254° |
| 2026-05-08 09:42 | 38.71132 | -109.84154 | 32026 ft | 405 kts | 253° |
| 2026-05-08 09:42 | 38.68892 | -109.90769 | 32013 ft | 404 kts | 254° |
| 2026-05-08 09:43 | 38.66651 | -109.97375 | 31966 ft | 404 kts | 253° |
| 2026-05-08 09:43 | 38.64418 | -110.03941 | 31959 ft | 404 kts | 253° |
| 2026-05-08 09:44 | 38.62171 | -110.10538 | 31955 ft | 405 kts | 253° |
| 2026-05-08 09:44 | 38.59918 | -110.17134 | 31961 ft | 405 kts | 253° |
| 2026-05-08 09:45 | 38.57655 | -110.23740 | 31950 ft | 404 kts | 253° |
| 2026-05-08 09:45 | 38.55396 | -110.30326 | 31951 ft | 404 kts | 253° |
| 2026-05-08 09:46 | 38.53146 | -110.36867 | 31947 ft | 404 kts | 253° |
| 2026-05-08 09:46 | 38.50878 | -110.43447 | 31946 ft | 404 kts | 253° |
| 2026-05-08 09:47 | 38.48603 | -110.50029 | 31943 ft | 405 kts | 253° |
| 2026-05-08 09:47 | 38.46338 | -110.56570 | 31942 ft | 405 kts | 253° |
| 2026-05-08 09:48 | 38.44059 | -110.63137 | 32060 ft | 405 kts | 253° |
| 2026-05-08 09:48 | 38.41765 | -110.69723 | 32059 ft | 406 kts | 251° |
| 2026-05-08 09:49 | 38.39504 | -110.75016 | 32062 ft | 410 kts | 245° |
| 2026-05-08 09:49 | 38.36197 | -110.82302 | 32052 ft | 407 kts | 248° |
| 2026-05-08 09:50 | 38.33899 | -110.87564 | 32033 ft | 409 kts | 246° |
| 2026-05-08 09:50 | 38.31073 | -110.93842 | 32004 ft | 408 kts | 246° |
| 2026-05-08 09:51 | 38.28281 | -111.00138 | 31975 ft | 408 kts | 246° |
| 2026-05-08 09:51 | 38.25477 | -111.06393 | 31954 ft | 408 kts | 246° |
| 2026-05-08 09:52 | 38.22667 | -111.12676 | 31940 ft | 408 kts | 246° |
| 2026-05-08 09:52 | 38.19844 | -111.18964 | 31954 ft | 409 kts | 246° |
| 2026-05-08 09:53 | 38.17038 | -111.25204 | 31952 ft | 408 kts | 246° |
| 2026-05-08 09:53 | 38.14216 | -111.31472 | 31970 ft | 408 kts | 245° |
| 2026-05-08 09:54 | 38.11396 | -111.37718 | 31960 ft | 408 kts | 246° |
| 2026-05-08 09:54 | 38.08567 | -111.43974 | 31988 ft | 408 kts | 246° |
| 2026-05-08 09:55 | 38.05277 | -111.51234 | 31984 ft | 408 kts | 245° |
| 2026-05-08 09:55 | 38.02903 | -111.56462 | 32001 ft | 408 kts | 245° |
| 2026-05-08 09:56 | 38.00067 | -111.62697 | 32001 ft | 407 kts | 245° |
| 2026-05-08 09:56 | 37.97248 | -111.68882 | 31986 ft | 408 kts | 245° |
| 2026-05-08 09:57 | 37.92967 | -111.78250 | 31992 ft | 409 kts | 245° |
| 2026-05-08 09:57 | 37.90118 | -111.84472 | 32043 ft | 408 kts | 245° |
| 2026-05-08 09:58 | 37.88689 | -111.87589 | 32066 ft | 408 kts | 245° |
| 2026-05-08 09:58 | 37.84331 | -111.97072 | 32140 ft | 408 kts | 245° |
| 2026-05-08 09:59 | 37.81522 | -112.03169 | 32181 ft | 408 kts | 245° |
| 2026-05-08 09:59 | 37.78658 | -112.09375 | 32224 ft | 408 kts | 245° |
| 2026-05-08 10:00 | 37.75793 | -112.15572 | 32226 ft | 407 kts | 244° |
| 2026-05-08 10:00 | 37.72938 | -112.21732 | 32222 ft | 405 kts | 244° |
| 2026-05-08 10:01 | 37.70570 | -112.26838 | 32221 ft | 405 kts | 244° |